EDAM weather

Merseburg Airport
Merseburg, Saxony-Anhalt, Germany

Public forecast

Using degrees Celsius for public forecast. Weather courtesy of forecast.io.

METAR (pilot weather report)

Closest report is Leipzig/Halle Airport, 11.7 nm (21.6 km) ENE. Retrieved 2019/06/25 00:20 UTC (23 minutes ago):

EDDP 250020Z 14007KT CAVOK 19/13 Q1022 NOSIG

TAF (pilot weather forecast)

Forecast is more than 12 hours old.

Closest forecast is Leipzig/Halle Airport, 11.7 nm (21.6 km) ENE. Retrieved 2019/06/24 00:27 UTC (1 day ago):

TAF EDDP 242300Z 2500/2524 12008KT CAVOK